KLAW/LAW METAR and TAF weather

Enter ICAO airport designator
Station Type Date Time Source
KLAW METAR 2020/01/18 23:53 UTC NOAA

KLAW 182353Z 02009KT 10SM CLR 07/M07 A3042 RMK AO2 SLP306 T00671067 10111 20067 51008


Station Type Date Time Source
KLAW Decoded METAR 2020/01/18 23:53 UTC NOAA

LAWTON - FORT SILL REGIONAL, OK, United States (KLAW) 34-34N 98-25W 337M
Jan 18, 2020 - 06:53 PM EST / 2020.01.18 2353 UTC
Wind: from the NNE (020 degrees) at 10 MPH (9 KT):0
Visibility: 10 mile(s):0
Sky conditions: clear
Temperature: 44.1 F (6.7 C)
Dew Point: 19.9 F (-6.7 C)
Relative Humidity: 37%
Pressure (altimeter): 30.42 in. Hg (1030 hPa)
Pressure tendency: 0.02 inches (0.8 hPa) higher than three hours ago
ob: KLAW 182353Z 02009KT 10SM CLR 07/M07 A3042 RMK AO2 SLP306 T00671067 10111 20067 51008
cycle: 0

Station Type Date Time Source
KLAW TAF 2020/01/18 18:33 UTC NOAA

TAF KLAW 181731Z 1818/1918 01025G35KT P6SM SKC
FM182100 02015G24KT P6SM SKC
FM190100 21005KT P6SM SKC

Example: see airport list